createdAt,value
2019-05-23T00:04:29.365Z,2.67
2019-05-23T00:09:34.153Z,3.60
2019-05-23T00:14:44.364Z,2.10
2019-05-23T00:19:50.328Z,1.50
2019-05-23T00:24:55.843Z,1.47
2019-05-23T00:30:02.115Z,1.33
2019-05-23T00:40:23.167Z,1.63
2019-05-23T00:45:29.370Z,1.30
2019-05-23T00:50:34.832Z,2.03
2019-05-23T00:55:39.690Z,3.20
2019-05-23T01:00:44.515Z,3.42
2019-05-23T01:05:50.169Z,2.10
2019-05-23T01:10:56.517Z,4.27
2019-05-23T01:16:01.193Z,5.57
2019-05-23T01:21:13.956Z,7.23
2019-05-23T01:26:20.252Z,6.20
2019-05-23T01:31:27.784Z,7.95
2019-05-23T01:36:33.400Z,10.20
2019-05-23T01:41:39.691Z,11.20
2019-05-23T01:46:44.982Z,16.17
2019-05-23T01:51:50.725Z,23.03
2019-05-23T01:56:56.188Z,22.70
2019-05-23T02:02:00.902Z,22.27
2019-05-23T02:07:06.183Z,22.40
2019-05-23T02:12:12.092Z,23.23
2019-05-23T02:17:17.376Z,21.07
2019-05-23T02:22:22.775Z,23.10
2019-05-23T02:27:28.051Z,20.27
2019-05-23T02:32:34.173Z,18.77
2019-05-23T02:37:58.192Z,19.50
2019-05-23T02:43:05.585Z,19.73
2019-05-23T02:48:14.278Z,18.57
2019-05-23T02:53:21.119Z,21.70
2019-05-23T02:58:33.734Z,22.37
2019-05-23T03:03:40.077Z,20.17
2019-05-23T03:08:46.477Z,24.43
2019-05-23T03:13:53.320Z,20.50
2019-05-23T03:19:01.432Z,23.27
2019-05-23T03:24:08.175Z,25.03
2019-05-23T03:29:12.943Z,24.47
2019-05-23T03:34:21.246Z,24.43
2019-05-23T03:39:26.305Z,27.80
2019-05-23T03:44:32.218Z,24.33
2019-05-23T03:49:37.107Z,21.47
2019-05-23T03:54:43.834Z,20.63
2019-05-23T03:59:48.947Z,21.73
2019-05-23T04:04:54.045Z,21.33
2019-05-23T04:09:59.210Z,20.57
2019-05-23T04:15:04.825Z,20.23
2019-05-23T04:26:00.958Z,26.10
2019-05-23T04:31:06.175Z,20.80
2019-05-23T04:36:10.952Z,20.43
2019-05-23T04:41:16.146Z,18.43
2019-05-23T04:46:21.367Z,16.00
2019-05-23T04:51:26.565Z,16.63
2019-05-23T04:56:31.490Z,17.73
2019-05-23T05:01:37.491Z,19.30
2019-05-23T05:06:42.376Z,17.07
2019-05-23T05:11:47.460Z,20.30
2019-05-23T05:16:52.324Z,18.80
2019-05-23T05:21:57.220Z,16.57
2019-05-23T05:27:02.237Z,17.20
2019-05-23T05:32:07.864Z,17.23
2019-05-23T05:37:12.775Z,14.00
2019-05-23T05:42:18.223Z,13.03
2019-05-23T05:47:23.016Z,13.13
2019-05-23T05:52:27.983Z,13.83
2019-05-23T05:57:32.766Z,14.73
2019-05-23T06:02:37.765Z,17.43
2019-05-23T06:07:43.822Z,16.47
2019-05-23T06:12:48.541Z,16.07
2019-05-23T06:17:53.801Z,14.50
2019-05-23T06:22:58.745Z,11.40
